Time;durP1;ratioP1;P1;durP2;ratioP2;P2;SDS_P1;SDS_P2;PMS_P1;PMS_P2;Temp;Humidity;BMP_temperature;BMP_pressure;BME280_temperature;BME280_humidity;BME280_pressure;Samples;Min_cycle;Max_cycle;Signal;HPM_P1;HPM_P2
2024/01/23 00:02:15;;;;;;;;;;;;;;;;;;5057175;28;19950;-81
2024/01/23 00:04:42;;;;;;;;;;;;;;;;;;5064513;28;19932;-78
2024/01/23 00:07:08;;;;;;;;;;;;;;;;;;5076304;28;19970;-81
2024/01/23 00:09:35;;;;;;;;;;;;;;;;;;5078455;28;19959;-80
2024/01/23 00:12:02;;;;;;;;;;;;;;;;;;5085751;28;19957;-78
2024/01/23 00:14:28;;;;;;;;;;;;;;;;;;5058222;28;19931;-81
2024/01/23 00:16:55;;;;;;;;;;;;;;;;;;5075980;28;19924;-79
2024/01/23 00:19:21;;;;;;;;;;;;;;;;;;5067605;28;19936;-81
2024/01/23 00:21:48;;;;;;;;;;;;;;;;;;5079647;28;19928;-81
2024/01/23 00:24:14;;;;;;;;;;;;;;;;;;5074584;28;19929;-82
2024/01/23 00:26:41;;;;;;;;;;;;;;;;;;5077416;28;19924;-80
2024/01/23 00:29:07;;;;;;;;;;;;;;;;;;5059871;28;19924;-79
2024/01/23 00:31:34;;;;;;;;;;;;;;;;;;5073412;28;19924;-80
2024/01/23 00:34:00;;;;;;;;;;;;;;;;;;5078013;28;19951;-84
2024/01/23 00:36:27;;;;;;;;;;;;;;;;;;5076557;28;19928;-79
2024/01/23 00:38:54;;;;;;;;;;;;;;;;;;5064006;28;19956;-81
2024/01/23 00:41:20;;;;;;;;;;;;;;;;;;5066182;28;19924;-81
2024/01/23 00:43:47;;;;;;;;;;;;;;;;;;5072172;28;20441;-76
2024/01/23 00:46:16;;;;;;;;;;;;;;;;;;5070361;28;19925;-80
2024/01/23 00:48:44;;;;;;;;;;;;;;;;;;5084846;28;19924;-77
2024/01/23 00:51:11;;;;;;;;;;;;;;;;;;5073142;28;20380;-77
2024/01/23 00:53:37;;;;;;;;;;;;;;;;;;5079940;28;20400;-79
2024/01/23 00:56:04;;;;;;;;;;;;;;;;;;5081080;28;19924;-81
2024/01/23 00:58:30;;;;;;;;;;;;;;;;;;5075865;28;19924;-78
2024/01/23 01:00:57;;;;;;;;;;;;;;;;;;5079203;28;20019;-80
2024/01/23 01:03:23;;;;;;;;;;;;;;;;;;5072114;28;20345;-83
2024/01/23 01:05:50;;;;;;;;;;;;;;;;;;5069350;28;20429;-79
2024/01/23 01:08:17;;;;;;;;;;;;;;;;;;5078967;28;19982;-79
2024/01/23 01:10:43;;;;;;;;;;;;;;;;;;5083304;28;20486;-80
2024/01/23 01:13:10;;;;;;;;;;;;;;;;;;5062862;28;19928;-81
2024/01/23 01:15:38;;;;;;;;;;;;;;;;;;5085304;28;19927;-80
2024/01/23 01:18:06;;;;;;;;;;;;;;;;;;5081057;28;19939;-80
2024/01/23 01:20:33;;;;;;;;;;;;;;;;;;5080040;28;19935;-79
2024/01/23 01:22:59;;;;;;;;;;;;;;;;;;5078524;28;19932;-78
2024/01/23 01:25:26;;;;;;;;;;;;;;;;;;5076787;28;20023;-80
2024/01/23 01:27:52;;;;;;;;;;;;;;;;;;5064361;28;19946;-79
2024/01/23 01:30:18;;;;;;;;;;;;;;;;;;5078575;28;19931;-80
2024/01/23 01:32:45;;;;;;;;;;;;;;;;;;5083222;28;20386;-78
2024/01/23 01:35:13;;;;;;;;;;;;;;;;;;5079625;28;19924;-81
2024/01/23 01:37:40;;;;;;;;;;;;;;;;;;5072174;28;19925;-80
2024/01/23 01:40:09;;;;;;;;;;;;;;;;;;5062167;28;20022;-81
2024/01/23 01:42:35;;;;;;;;;;;;;;;;;;5079373;28;19950;-83
2024/01/23 01:45:03;;;;;;;;;;;;;;;;;;5084860;28;19928;-78
2024/01/23 01:47:29;;;;;;;;;;;;;;;;;;5060998;28;19925;-78
2024/01/23 01:49:56;;;;;;;;;;;;;;;;;;5081222;28;19947;-80
2024/01/23 01:52:23;;;;;;;;;;;;;;;;;;5078186;28;19979;-81
2024/01/23 01:54:50;;;;;;;;;;;;;;;;;;5083232;28;19924;-81
2024/01/23 01:57:16;;;;;;;;;;;;;;;;;;5072816;28;19931;-79
2024/01/23 01:59:43;;;;;;;;;;;;;;;;;;5061224;28;19975;-81
2024/01/23 02:02:09;;;;;;;;;;;;;;;;;;5087822;28;19932;-79
2024/01/23 02:04:35;;;;;;;;;;;;;;;;;;5079970;28;19963;-79
2024/01/23 02:07:02;;;;;;;;;;;;;;;;;;5076665;28;19948;-79
2024/01/23 02:09:28;;;;;;;;;;;;;;;;;;5071648;28;19934;-80
2024/01/23 02:11:55;;;;;;;;;;;;;;;;;;5081391;28;19924;-80
2024/01/23 02:14:24;;;;;;;;;;;;;;;;;;5083490;28;19932;-83
2024/01/23 02:16:51;;;;;;;;;;;;;;;;;;5079834;28;19983;-85
2024/01/23 02:19:18;;;;;;;;;;;;;;;;;;5066923;28;19928;-82
2024/01/23 02:21:44;;;;;;;;;;;;;;;;;;5079784;28;20373;-82
2024/01/23 02:24:10;;;;;;;;;;;;;;;;;;5070795;28;20031;-83
2024/01/23 02:26:38;;;;;;;;;;;;;;;;;;5076632;28;19933;-83
2024/01/23 02:29:05;;;;;;;;;;;;;;;;;;5060408;28;19999;-82
2024/01/23 02:31:31;;;;;;;;;;;;;;;;;;5079220;28;19931;-82
2024/01/23 02:33:58;;;;;;;;;;;;;;;;;;5057664;28;19924;-84
2024/01/23 02:36:25;;;;;;;;;;;;;;;;;;5084091;28;19924;-84
2024/01/23 02:38:51;;;;;;;;;;;;;;;;;;5055889;28;19956;-84
2024/01/23 02:41:18;;;;;;;;;;;;;;;;;;5071789;28;19925;-83
2024/01/23 02:43:45;;;;;;;;;;;;;;;;;;5057431;28;19990;-85
2024/01/23 02:46:11;;;;;;;;;;;;;;;;;;5074430;28;20340;-83
2024/01/23 02:48:38;;;;;;;;;;;;;;;;;;5074863;28;19933;-84
2024/01/23 02:51:04;;;;;;;;;;;;;;;;;;5078439;28;20279;-83
2024/01/23 02:53:31;;;;;;;;;;;;;;;;;;5082793;28;20326;-82
2024/01/23 02:55:58;;;;;;;;;;;;;;;;;;5083913;28;20412;-82
2024/01/23 02:58:25;;;;;;;;;;;;;;;;;;5067476;28;19924;-85
2024/01/23 03:00:51;;;;;;;;;;;;;;;;;;5073281;28;19968;-83
2024/01/23 03:03:18;;;;;;;;;;;;;;;;;;5071759;28;19924;-84
2024/01/23 03:05:45;;;;;;;;;;;;;;;;;;5075272;28;19931;-84
2024/01/23 03:08:12;;;;;;;;;;;;;;;;;;5059344;28;19924;-80
2024/01/23 03:10:39;;;;;;;;;;;;;;;;;;5071863;28;19925;-83
2024/01/23 03:13:09;;;;;;;;;;;;;;;;;;5073419;28;20024;-83
2024/01/23 03:15:36;;;;;;;;;;;;;;;;;;5072712;28;20278;-85
2024/01/23 03:18:05;;;;;;;;;;;;;;;;;;5079183;28;20039;-82
2024/01/23 03:20:33;;;;;;;;;;;;;;;;;;5073561;28;20019;-80
2024/01/23 03:23:00;;;;;;;;;;;;;;;;;;5073208;28;19924;-83
2024/01/23 03:25:27;;;;;;;;;;;;;;;;;;5083035;28;19928;-83
2024/01/23 03:27:54;;;;;;;;;;;;;;;;;;5074518;28;19931;-80
2024/01/23 03:30:20;;;;;;;;;;;;;;;;;;5070846;28;20027;-82
2024/01/23 03:32:48;;;;;;;;;;;;;;;;;;5075350;28;19928;-80
2024/01/23 03:35:20;;;;;;;;;;;;;;;;;;5081500;28;19931;-81
2024/01/23 03:37:49;;;;;;;;;;;;;;;;;;5059822;28;20019;-80
2024/01/23 03:40:16;;;;;;;;;;;;;;;;;;5083149;28;20026;-81
2024/01/23 03:42:42;;;;;;;;;;;;;;;;;;5063049;28;19925;-83
2024/01/23 03:45:14;;;;;;;;;;;;;;;;;;5067731;28;19932;-83
2024/01/23 03:47:44;;;;;;;;;;;;;;;;;;5069400;28;19924;-81
2024/01/23 03:50:11;;;;;;;;;;;;;;;;;;5057588;28;19980;-81
2024/01/23 03:52:39;;;;;;;;;;;;;;;;;;5070744;28;19924;-83
2024/01/23 03:55:05;;;;;;;;;;;;;;;;;;5078591;28;19928;-82
2024/01/23 03:57:32;;;;;;;;;;;;;;;;;;5079394;28;19925;-81
2024/01/23 04:00:02;;;;;;;;;;;;;;;;;;5078699;28;19971;-79
2024/01/23 04:02:37;;;;;;;;;;;;;;;;;;5080052;28;19924;-82
2024/01/23 04:05:05;;;;;;;;;;;;;;;;;;5071847;28;20013;-79
2024/01/23 04:07:33;;;;;;;;;;;;;;;;;;5095200;28;19924;-81
2024/01/23 04:10:01;;;;;;;;;;;;;;;;;;5072556;28;19932;-82
2024/01/23 04:12:31;;;;;;;;;;;;;;;;;;5077657;28;19956;-80
2024/01/23 04:14:58;;;;;;;;;;;;;;;;;;5082114;28;19932;-81
2024/01/23 04:17:28;;;;;;;;;;;;;;;;;;5081176;28;20028;-82
2024/01/23 04:19:55;;;;;;;;;;;;;;;;;;5078129;28;19975;-83
2024/01/23 04:22:23;;;;;;;;;;;;;;;;;;5082045;28;20011;-81
2024/01/23 04:24:50;;;;;;;;;;;;;;;;;;5078418;28;19971;-82
2024/01/23 04:27:18;;;;;;;;;;;;;;;;;;5079257;28;19924;-80
2024/01/23 04:29:44;;;;;;;;;;;;;;;;;;5083053;28;19963;-82
2024/01/23 04:32:12;;;;;;;;;;;;;;;;;;5086981;28;20000;-82
2024/01/23 04:34:40;;;;;;;;;;;;;;;;;;5077695;28;19924;-82
2024/01/23 04:37:07;;;;;;;;;;;;;;;;;;5085813;28;19940;-83
2024/01/23 04:39:34;;;;;;;;;;;;;;;;;;5070915;28;19929;-81
2024/01/23 04:42:00;;;;;;;;;;;;;;;;;;5080191;28;19933;-82
2024/01/23 04:44:27;;;;;;;;;;;;;;;;;;5078222;28;19979;-82
2024/01/23 04:46:56;;;;;;;;;;;;;;;;;;5065274;28;19929;-81
2024/01/23 04:49:23;;;;;;;;;;;;;;;;;;5093663;28;20426;-82
2024/01/23 04:51:49;;;;;;;;;;;;;;;;;;5077613;28;19932;-82
2024/01/23 04:54:16;;;;;;;;;;;;;;;;;;5080070;28;20019;-81
2024/01/23 04:56:43;;;;;;;;;;;;;;;;;;5077031;28;20023;-78
2024/01/23 04:59:11;;;;;;;;;;;;;;;;;;5080883;28;19928;-80
2024/01/23 05:01:37;;;;;;;;;;;;;;;;;;5078461;28;19929;-82
2024/01/23 05:04:04;;;;;;;;;;;;;;;;;;5076140;28;19925;-82
2024/01/23 05:06:30;;;;;;;;;;;;;;;;;;5073120;28;20312;-80
2024/01/23 05:08:57;;;;;;;;;;;;;;;;;;5056080;28;20419;-81
2024/01/23 05:11:24;;;;;;;;;;;;;;;;;;5065960;28;19929;-80
2024/01/23 05:13:54;;;;;;;;;;;;;;;;;;5073349;28;20012;-81
2024/01/23 05:16:22;;;;;;;;;;;;;;;;;;5049734;28;19925;-80
2024/01/23 05:18:49;;;;;;;;;;;;;;;;;;5070276;28;19931;-81
2024/01/23 05:21:17;;;;;;;;;;;;;;;;;;5080930;28;20344;-80
2024/01/23 05:23:44;;;;;;;;;;;;;;;;;;5083641;28;19963;-80
2024/01/23 05:26:10;;;;;;;;;;;;;;;;;;5069828;28;19951;-82
2024/01/23 05:28:37;;;;;;;;;;;;;;;;;;5083974;28;19938;-81
2024/01/23 05:31:03;;;;;;;;;;;;;;;;;;5062966;28;20015;-82
2024/01/23 05:33:30;;;;;;;;;;;;;;;;;;5080689;28;20339;-82
2024/01/23 05:35:57;;;;;;;;;;;;;;;;;;5069375;28;19928;-80
2024/01/23 05:38:25;;;;;;;;;;;;;;;;;;5061097;28;19931;-82
2024/01/23 05:40:51;;;;;;;;;;;;;;;;;;5074844;28;20393;-82
2024/01/23 05:43:18;;;;;;;;;;;;;;;;;;5075936;28;19932;-81
2024/01/23 05:45:44;;;;;;;;;;;;;;;;;;5082720;28;19928;-82
2024/01/23 05:48:11;;;;;;;;;;;;;;;;;;5078311;28;19928;-82
2024/01/23 05:50:38;;;;;;;;;;;;;;;;;;5060658;28;19941;-81
2024/01/23 05:53:04;;;;;;;;;;;;;;;;;;5075288;28;19928;-81
2024/01/23 05:55:31;;;;;;;;;;;;;;;;;;5069661;28;19952;-82
2024/01/23 05:57:58;;;;;;;;;;;;;;;;;;5081036;28;19932;-82
2024/01/23 06:00:25;;;;;;;;;;;;;;;;;;5074948;28;20319;-81
2024/01/23 06:02:51;;;;;;;;;;;;;;;;;;5075446;28;20389;-80
2024/01/23 06:05:19;;;;;;;;;;;;;;;;;;5074078;28;19935;-83
2024/01/23 06:07:49;;;;;;;;;;;;;;;;;;5082142;28;19976;-82
2024/01/23 06:10:16;;;;;;;;;;;;;;;;;;5072238;28;19924;-82
2024/01/23 06:12:43;;;;;;;;;;;;;;;;;;5060242;28;19931;-82
2024/01/23 06:15:09;;;;;;;;;;;;;;;;;;5075482;28;19952;-81
2024/01/23 06:17:36;;;;;;;;;;;;;;;;;;5078366;28;20015;-82
2024/01/23 06:20:04;;;;;;;;;;;;;;;;;;5068867;28;19929;-80
2024/01/23 06:22:30;;;;;;;;;;;;;;;;;;5077406;28;19924;-81
2024/01/23 06:24:57;;;;;;;;;;;;;;;;;;5075289;28;19925;-82
2024/01/23 06:27:23;;;;;;;;;;;;;;;;;;5083872;28;19932;-81
2024/01/23 06:29:50;;;;;;;;;;;;;;;;;;5065617;28;20411;-83
2024/01/23 06:32:16;;;;;;;;;;;;;;;;;;5077367;28;20380;-82
2024/01/23 06:34:42;;;;;;;;;;;;;;;;;;5068815;28;20296;-82
2024/01/23 06:37:09;;;;;;;;;;;;;;;;;;5067536;28;19925;-82
2024/01/23 06:39:35;;;;;;;;;;;;;;;;;;5083060;28;19924;-83
2024/01/23 06:42:02;;;;;;;;;;;;;;;;;;5073408;28;20375;-82
2024/01/23 06:44:32;;;;;;;;;;;;;;;;;;5057352;28;19924;-82
2024/01/23 06:46:58;;;;;;;;;;;;;;;;;;5075972;28;19932;-82
2024/01/23 06:49:25;;;;;;;;;;;;;;;;;;5060236;28;19974;-83
2024/01/23 06:51:51;;;;;;;;;;;;;;;;;;5057140;28;19963;-81
2024/01/23 06:54:19;;;;;;;;;;;;;;;;;;5056527;28;19925;-81
2024/01/23 06:56:46;;;;;;;;;;;;;;;;;;5059113;28;20321;-82
2024/01/23 06:59:16;;;;;;;;;;;;;;;;;;5075951;28;19924;-81
2024/01/23 07:01:43;;;;;;;;;;;;;;;;;;5080632;28;19977;-82
2024/01/23 07:04:09;;;;;;;;;;;;;;;;;;5080588;28;19931;-82
2024/01/23 07:06:36;;;;;;;;;;;;;;;;;;5077586;28;19928;-81
2024/01/23 07:09:04;;;;;;;;;;;;;;;;;;5082631;28;20396;-82
2024/01/23 07:11:31;;;;;;;;;;;;;;;;;;5076753;28;20305;-81
2024/01/23 07:13:59;;;;;;;;;;;;;;;;;;5069119;28;19931;-83
2024/01/23 07:16:26;;;;;;;;;;;;;;;;;;5066268;28;20440;-81
2024/01/23 07:18:52;;;;;;;;;;;;;;;;;;5084443;28;20302;-81
2024/01/23 07:21:21;;;;;;;;;;;;;;;;;;5076090;28;20180;-80
2024/01/23 07:23:47;;;;;;;;;;;;;;;;;;5082341;28;19929;-80
2024/01/23 07:26:14;;;;;;;;;;;;;;;;;;5078661;28;19928;-81
2024/01/23 07:28:40;;;;;;;;;;;;;;;;;;5059061;28;19932;-80
2024/01/23 07:31:23;;;;;;;;;;;;;;;;;;5069978;28;19947;-80
2024/01/23 07:33:50;;;;;;;;;;;;;;;;;;5077225;28;19925;-81
2024/01/23 07:36:16;;;;;;;;;;;;;;;;;;5066810;28;19924;-81
2024/01/23 07:38:43;;;;;;;;;;;;;;;;;;5076197;28;20021;-82
2024/01/23 07:41:09;;;;;;;;;;;;;;;;;;5081602;28;19924;-81
2024/01/23 07:43:36;;;;;;;;;;;;;;;;;;5065994;28;19928;-80
2024/01/23 07:46:02;;;;;;;;;;;;;;;;;;5077759;28;19924;-80
2024/01/23 07:48:29;;;;;;;;;;;;;;;;;;5078308;28;19932;-80
2024/01/23 07:50:55;;;;;;;;;;;;;;;;;;5079176;28;19925;-81
2024/01/23 07:53:22;;;;;;;;;;;;;;;;;;5075107;28;19968;-79
2024/01/23 07:55:48;;;;;;;;;;;;;;;;;;5072720;28;19928;-82
2024/01/23 07:58:15;;;;;;;;;;;;;;;;;;5070846;28;19928;-81
2024/01/23 08:00:41;;;;;;;;;;;;;;;;;;5075149;28;20441;-81
2024/01/23 08:03:08;;;;;;;;;;;;;;;;;;5077012;28;19935;-81
2024/01/23 08:05:35;;;;;;;;;;;;;;;;;;5079660;28;19925;-80
2024/01/23 08:08:01;;;;;;;;;;;;;;;;;;5077054;28;19928;-83
2024/01/23 08:10:29;;;;;;;;;;;;;;;;;;5062254;28;19924;-80
2024/01/23 08:12:56;;;;;;;;;;;;;;;;;;5084233;28;19962;-81
2024/01/23 08:15:23;;;;;;;;;;;;;;;;;;5068135;28;20405;-82
2024/01/23 08:17:50;;;;;;;;;;;;;;;;;;5072500;28;20444;-76
2024/01/23 08:20:16;;;;;;;;;;;;;;;;;;5063184;28;19924;-76
2024/01/23 08:22:43;;;;;;;;;;;;;;;;;;5079153;28;19925;-76
2024/01/23 08:25:09;;;;;;;;;;;;;;;;;;5069283;28;19931;-76
2024/01/23 08:27:36;;;;;;;;;;;;;;;;;;5060732;28;20026;-75
2024/01/23 08:30:02;;;;;;;;;;;;;;;;;;5077989;28;19932;-74
2024/01/23 08:32:29;;;;;;;;;;;;;;;;;;5079793;28;20022;-77
2024/01/23 08:34:55;;;;;;;;;;;;;;;;;;5070052;28;20304;-76
2024/01/23 08:37:22;;;;;;;;;;;;;;;;;;5075333;28;20293;-77
2024/01/23 08:39:48;;;;;;;;;;;;;;;;;;5073307;28;19929;-76
2024/01/23 08:42:15;;;;;;;;;;;;;;;;;;5080768;28;19928;-76
2024/01/23 08:44:46;;;;;;;;;;;;;;;;;;5080101;28;19924;-77
2024/01/23 08:47:13;;;;;;;;;;;;;;;;;;5070292;28;20270;-78
2024/01/23 08:49:40;;;;;;;;;;;;;;;;;;5068356;28;19924;-77
2024/01/23 08:52:06;;;;;;;;;;;;;;;;;;5067349;28;19925;-75
2024/01/23 08:54:34;;;;;;;;;;;;;;;;;;5082043;28;19924;-75
2024/01/23 08:57:01;;;;;;;;;;;;;;;;;;5073402;28;20297;-77
2024/01/23 08:59:28;;;;;;;;;;;;;;;;;;5079644;28;19924;-77
2024/01/23 09:01:55;;;;;;;;;;;;;;;;;;5074056;28;19931;-78
2024/01/23 09:04:21;;;;;;;;;;;;;;;;;;5081416;28;19932;-76
2024/01/23 09:06:48;;;;;;;;;;;;;;;;;;5078153;28;19927;-76
2024/01/23 09:09:14;;;;;;;;;;;;;;;;;;5079458;28;19928;-76
2024/01/23 09:11:41;;;;;;;;;;;;;;;;;;5075716;28;19928;-76
2024/01/23 09:14:07;;;;;;;;;;;;;;;;;;5081990;28;19975;-77
2024/01/23 09:16:34;;;;;;;;;;;;;;;;;;5074380;28;19925;-76
2024/01/23 09:19:00;;;;;;;;;;;;;;;;;;5079209;28;19932;-80
2024/01/23 09:21:28;;;;;;;;;;;;;;;;;;5076030;28;19924;-80
2024/01/23 09:23:55;;;;;;;;;;;;;;;;;;5090269;28;19931;-78
2024/01/23 09:26:21;;;;;;;;;;;;;;;;;;5091618;28;20376;-82
2024/01/23 09:28:48;;;;;;;;;;;;;;;;;;5084100;28;19928;-79
2024/01/23 09:31:14;;;;;;;;;;;;;;;;;;5071592;28;19929;-80
2024/01/23 09:33:41;;;;;;;;;;;;;;;;;;5070817;28;19925;-75
2024/01/23 09:36:10;;;;;;;;;;;;;;;;;;5091714;28;19934;-79
2024/01/23 09:38:36;;;;;;;;;;;;;;;;;;5091223;28;19938;-78
2024/01/23 09:41:04;;;;;;;;;;;;;;;;;;5092560;28;19925;-77
2024/01/23 09:43:30;;;;;;;;;;;;;;;;;;5083739;28;20031;-77
2024/01/23 09:45:56;;;;;;;;;;;;;;;;;;5091786;28;20450;-76
2024/01/23 09:48:23;;;;;;;;;;;;;;;;;;5075169;28;19954;-79
2024/01/23 09:50:52;;;;;;;;;;;;;;;;;;5086593;28;20343;-76
2024/01/23 09:53:18;;;;;;;;;;;;;;;;;;5077157;28;19932;-76
2024/01/23 09:55:50;;;;;;;;;;;;;;;;;;5089317;28;20343;-80
2024/01/23 09:58:17;;;;;;;;;;;;;;;;;;5074130;28;20369;-77
2024/01/23 10:00:43;;;;;;;;;;;;;;;;;;5079642;28;20357;-79
2024/01/23 10:03:10;;;;;;;;;;;;;;;;;;5064719;28;19947;-78
2024/01/23 10:05:37;;;;;;;;;;;;;;;;;;5081135;28;19928;-79
2024/01/23 10:08:06;;;;;;;;;;;;;;;;;;5077779;28;19975;-82
2024/01/23 10:10:32;;;;;;;;;;;;;;;;;;5075075;28;19964;-82
2024/01/23 10:12:59;;;;;;;;;;;;;;;;;;5086084;28;19934;-77
2024/01/23 10:15:25;;;;;;;;;;;;;;;;;;5070010;28;19939;-82
2024/01/23 10:17:53;;;;;;;;;;;;;;;;;;5075426;28;19963;-77
2024/01/23 10:20:20;;;;;;;;;;;;;;;;;;5072807;28;19928;-74
2024/01/23 10:22:46;;;;;;;;;;;;;;;;;;5083800;28;20448;-77
2024/01/23 10:25:20;;;;;;;;;;;;;;;;;;5084646;28;19929;-75
2024/01/23 10:27:47;;;;;;;;;;;;;;;;;;5075686;28;20408;-75
2024/01/23 10:30:14;;;;;;;;;;;;;;;;;;5075064;28;19925;-82
2024/01/23 10:32:40;;;;;;;;;;;;;;;;;;5086038;28;19987;-79
2024/01/23 10:35:07;;;;;;;;;;;;;;;;;;5076032;28;19924;-82
2024/01/23 10:37:34;;;;;;;;;;;;;;;;;;5076582;28;20011;-77
2024/01/23 10:40:00;;;;;;;;;;;;;;;;;;5077520;28;19925;-81
2024/01/23 10:42:26;;;;;;;;;;;;;;;;;;5077916;28;20258;-79
2024/01/23 10:44:53;;;;;;;;;;;;;;;;;;5069696;28;19974;-79
2024/01/23 10:47:19;;;;;;;;;;;;;;;;;;5082653;28;19978;-79
2024/01/23 10:49:46;;;;;;;;;;;;;;;;;;5076182;28;19924;-78
2024/01/23 10:52:12;;;;;;;;;;;;;;;;;;5070282;28;19924;-78
2024/01/23 10:54:39;;;;;;;;;;;;;;;;;;5071914;28;19929;-76
2024/01/23 10:57:07;;;;;;;;;;;;;;;;;;5081991;28;19924;-79
2024/01/23 10:59:34;;;;;;;;;;;;;;;;;;5076946;28;19959;-78
2024/01/23 11:02:00;;;;;;;;;;;;;;;;;;5067515;28;19986;-80
2024/01/23 11:04:27;;;;;;;;;;;;;;;;;;5075121;28;19928;-78
2024/01/23 11:06:53;;;;;;;;;;;;;;;;;;5079659;28;20370;-79
2024/01/23 11:09:19;;;;;;;;;;;;;;;;;;5080982;28;20289;-79
2024/01/23 11:11:46;;;;;;;;;;;;;;;;;;5064964;28;19925;-78
2024/01/23 11:14:12;;;;;;;;;;;;;;;;;;5079785;28;19979;-80
2024/01/23 11:16:39;;;;;;;;;;;;;;;;;;5068793;28;19935;-80
2024/01/23 11:19:05;;;;;;;;;;;;;;;;;;5083536;28;20350;-80
2024/01/23 11:21:32;;;;;;;;;;;;;;;;;;5064865;28;19929;-78
2024/01/23 11:23:58;;;;;;;;;;;;;;;;;;5061692;28;19951;-80
2024/01/23 11:26:26;;;;;;;;;;;;;;;;;;5074372;28;20368;-77
2024/01/23 11:28:52;;;;;;;;;;;;;;;;;;5055500;28;19931;-81
2024/01/23 11:31:19;;;;;;;;;;;;;;;;;;5065469;28;19932;-78
2024/01/23 11:33:45;;;;;;;;;;;;;;;;;;5070947;28;19925;-78
2024/01/23 11:36:12;;;;;;;;;;;;;;;;;;5079721;28;19936;-81
2024/01/23 11:38:38;;;;;;;;;;;;;;;;;;5076787;28;19928;-80
2024/01/23 11:41:05;;;;;;;;;;;;;;;;;;5068492;28;19925;-79
2024/01/23 11:43:31;;;;;;;;;;;;;;;;;;5078826;28;19924;-81
2024/01/23 11:45:57;;;;;;;;;;;;;;;;;;5077382;28;19963;-79
2024/01/23 11:48:24;;;;;;;;;;;;;;;;;;5076490;28;20304;-80
2024/01/23 11:50:51;;;;;;;;;;;;;;;;;;5078814;28;19974;-79
2024/01/23 11:53:17;;;;;;;;;;;;;;;;;;5080401;28;19971;-81
2024/01/23 11:55:44;;;;;;;;;;;;;;;;;;5077779;28;19925;-80
2024/01/23 11:58:11;;;;;;;;;;;;;;;;;;5072663;28;20408;-79
2024/01/23 12:00:37;;;;;;;;;;;;;;;;;;5083099;28;19944;-79
2024/01/23 12:03:05;;;;;;;;;;;;;;;;;;5070521;28;20296;-78
2024/01/23 12:05:32;;;;;;;;;;;;;;;;;;5070240;28;19929;-78
2024/01/23 12:07:58;;;;;;;;;;;;;;;;;;5076331;28;19924;-80
2024/01/23 12:10:24;;;;;;;;;;;;;;;;;;5080141;28;19963;-78
2024/01/23 12:12:52;;;;;;;;;;;;;;;;;;5064600;28;19986;-77
2024/01/23 12:15:19;;;;;;;;;;;;;;;;;;5078940;28;19928;-78
2024/01/23 12:17:45;;;;;;;;;;;;;;;;;;5077290;28;19925;-77
2024/01/23 12:20:12;;;;;;;;;;;;;;;;;;5073502;28;19935;-79
2024/01/23 12:22:38;;;;;;;;;;;;;;;;;;5068016;28;19933;-80
2024/01/23 12:25:05;;;;;;;;;;;;;;;;;;5070908;28;20022;-78
2024/01/23 12:27:31;;;;;;;;;;;;;;;;;;5082692;28;20032;-80
2024/01/23 12:30:00;;;;;;;;;;;;;;;;;;5072091;28;20241;-80
2024/01/23 12:32:27;;;;;;;;;;;;;;;;;;5059210;28;19928;-81
2024/01/23 12:34:53;;;;;;;;;;;;;;;;;;5068149;28;20032;-80
2024/01/23 12:37:23;;;;;;;;;;;;;;;;;;5082010;28;19998;-79
2024/01/23 12:39:49;;;;;;;;;;;;;;;;;;5079952;28;20059;-79
2024/01/23 12:42:16;;;;;;;;;;;;;;;;;;5084880;28;20045;-79
2024/01/23 12:44:43;;;;;;;;;;;;;;;;;;5066623;28;19975;-78
2024/01/23 12:47:09;;;;;;;;;;;;;;;;;;5085983;28;19935;-80
2024/01/23 12:49:35;;;;;;;;;;;;;;;;;;5082129;28;19924;-79
2024/01/23 12:52:02;;;;;;;;;;;;;;;;;;5079044;28;20380;-80
2024/01/23 12:54:28;;;;;;;;;;;;;;;;;;5077353;28;19924;-80
2024/01/23 12:56:54;;;;;;;;;;;;;;;;;;5080522;28;19970;-77
2024/01/23 12:59:21;;;;;;;;;;;;;;;;;;5083413;28;20041;-81
2024/01/23 13:01:49;;;;;;;;;;;;;;;;;;5078739;28;19951;-80
2024/01/23 13:04:15;;;;;;;;;;;;;;;;;;5076033;28;19925;-82
2024/01/23 13:06:42;;;;;;;;;;;;;;;;;;5074143;28;19930;-78
2024/01/23 13:09:09;;;;;;;;;;;;;;;;;;5086533;28;20277;-78
2024/01/23 13:11:35;;;;;;;;;;;;;;;;;;5074855;28;19987;-79
2024/01/23 13:14:02;;;;;;;;;;;;;;;;;;5076119;28;19978;-75
2024/01/23 13:16:28;;;;;;;;;;;;;;;;;;5063920;28;20143;-75
2024/01/23 13:18:54;;;;;;;;;;;;;;;;;;5078048;28;20024;-80
2024/01/23 13:21:21;;;;;;;;;;;;;;;;;;5078326;28;19928;-79
2024/01/23 13:23:47;;;;;;;;;;;;;;;;;;5076311;28;19925;-76
2024/01/23 13:26:14;;;;;;;;;;;;;;;;;;5076870;28;19979;-78
2024/01/23 13:28:40;;;;;;;;;;;;;;;;;;5086777;28;19975;-78
2024/01/23 13:31:07;;;;;;;;;;;;;;;;;;5078210;28;19931;-80
2024/01/23 13:33:33;;;;;;;;;;;;;;;;;;5072064;28;20038;-79
2024/01/23 13:36:00;;;;;;;;;;;;;;;;;;5076078;28;20388;-77
2024/01/23 13:38:27;;;;;;;;;;;;;;;;;;5080483;28;19928;-81
2024/01/23 13:40:54;;;;;;;;;;;;;;;;;;5083215;28;20223;-80
2024/01/23 13:43:20;;;;;;;;;;;;;;;;;;5073009;28;19931;-79
2024/01/23 13:45:47;;;;;;;;;;;;;;;;;;5061815;28;20285;-80
2024/01/23 13:48:13;;;;;;;;;;;;;;;;;;5078300;28;20297;-81
2024/01/23 13:50:40;;;;;;;;;;;;;;;;;;5085978;28;19925;-80
2024/01/23 13:53:06;;;;;;;;;;;;;;;;;;5074028;28;20374;-81
2024/01/23 13:55:33;;;;;;;;;;;;;;;;;;5068300;28;19930;-80
2024/01/23 13:57:59;;;;;;;;;;;;;;;;;;5071887;28;19925;-81
2024/01/23 14:00:27;;;;;;;;;;;;;;;;;;5080496;28;19925;-81
2024/01/23 14:02:53;;;;;;;;;;;;;;;;;;5074741;28;19931;-81
2024/01/23 14:05:20;;;;;;;;;;;;;;;;;;5074215;28;20022;-81
2024/01/23 14:07:47;;;;;;;;;;;;;;;;;;5074100;28;19928;-82
2024/01/23 14:10:20;;;;;;;;;;;;;;;;;;5073090;28;20427;-81
2024/01/23 14:12:47;;;;;;;;;;;;;;;;;;5063920;28;19925;-81
2024/01/23 14:15:15;;;;;;;;;;;;;;;;;;5069618;28;19925;-81
2024/01/23 14:17:42;;;;;;;;;;;;;;;;;;5074381;28;19932;-80
2024/01/23 14:20:11;;;;;;;;;;;;;;;;;;5075307;28;20307;-81
2024/01/23 14:22:37;;;;;;;;;;;;;;;;;;5067105;28;20438;-81
2024/01/23 14:25:04;;;;;;;;;;;;;;;;;;5072331;28;19975;-81
2024/01/23 14:27:30;;;;;;;;;;;;;;;;;;5080328;28;19931;-81
2024/01/23 14:29:57;;;;;;;;;;;;;;;;;;5064674;28;20288;-81
2024/01/23 14:32:23;;;;;;;;;;;;;;;;;;5063702;28;19928;-80
2024/01/23 14:34:52;;;;;;;;;;;;;;;;;;5056325;28;20326;-83
2024/01/23 14:37:18;;;;;;;;;;;;;;;;;;5078395;28;19994;-80
2024/01/23 14:39:45;;;;;;;;;;;;;;;;;;5074180;28;20023;-82
2024/01/23 14:42:11;;;;;;;;;;;;;;;;;;5077439;28;20012;-82
2024/01/23 14:44:38;;;;;;;;;;;;;;;;;;5077316;28;19963;-81
2024/01/23 14:47:05;;;;;;;;;;;;;;;;;;5057492;28;19928;-81
2024/01/23 14:49:31;;;;;;;;;;;;;;;;;;5065092;28;20027;-82
2024/01/23 14:51:58;;;;;;;;;;;;;;;;;;5082294;28;19959;-79
2024/01/23 14:54:27;;;;;;;;;;;;;;;;;;5060290;28;19944;-81
2024/01/23 14:56:54;;;;;;;;;;;;;;;;;;5076738;28;19935;-81
2024/01/23 14:59:21;;;;;;;;;;;;;;;;;;5072755;28;19957;-81
2024/01/23 15:01:48;;;;;;;;;;;;;;;;;;5082082;28;20039;-81
2024/01/23 15:04:14;;;;;;;;;;;;;;;;;;5068916;28;20007;-82
2024/01/23 15:06:41;;;;;;;;;;;;;;;;;;5073777;28;20324;-82
2024/01/23 15:09:10;;;;;;;;;;;;;;;;;;5070337;28;19932;-81
2024/01/23 15:11:38;;;;;;;;;;;;;;;;;;5051984;28;19951;-81
2024/01/23 15:14:05;;;;;;;;;;;;;;;;;;5074807;28;19930;-82
2024/01/23 15:16:31;;;;;;;;;;;;;;;;;;5050267;28;19989;-81
2024/01/23 15:18:58;;;;;;;;;;;;;;;;;;5071965;28;19955;-82
2024/01/23 15:21:24;;;;;;;;;;;;;;;;;;5072560;28;19924;-82
2024/01/23 15:23:51;;;;;;;;;;;;;;;;;;5080796;28;19925;-82
2024/01/23 15:26:17;;;;;;;;;;;;;;;;;;5057884;28;19924;-81
2024/01/23 15:28:44;;;;;;;;;;;;;;;;;;5076222;28;19924;-81
2024/01/23 15:31:13;;;;;;;;;;;;;;;;;;5060996;28;19972;-80
2024/01/23 15:33:39;;;;;;;;;;;;;;;;;;5077602;28;19928;-82
2024/01/23 15:36:06;;;;;;;;;;;;;;;;;;5077589;28;19925;-82
2024/01/23 15:38:32;;;;;;;;;;;;;;;;;;5074937;28;20030;-81
2024/01/23 15:40:59;;;;;;;;;;;;;;;;;;5060095;28;19925;-83
2024/01/23 15:43:25;;;;;;;;;;;;;;;;;;5077717;28;19933;-81
2024/01/23 15:45:52;;;;;;;;;;;;;;;;;;5078480;28;19924;-82
2024/01/23 15:48:19;;;;;;;;;;;;;;;;;;5067258;28;19964;-82
2024/01/23 15:50:48;;;;;;;;;;;;;;;;;;5071593;28;19931;-82
2024/01/23 15:53:15;;;;;;;;;;;;;;;;;;5069443;28;19994;-82
2024/01/23 15:55:41;;;;;;;;;;;;;;;;;;5072413;28;19924;-82
2024/01/23 15:58:08;;;;;;;;;;;;;;;;;;5075334;28;19974;-82
2024/01/23 16:00:34;;;;;;;;;;;;;;;;;;5075072;28;20307;-81
2024/01/23 16:03:01;;;;;;;;;;;;;;;;;;5068765;28;19971;-82
2024/01/23 16:05:29;;;;;;;;;;;;;;;;;;5084243;28;20429;-81
2024/01/23 16:07:57;;;;;;;;;;;;;;;;;;5065323;28;19928;-81
2024/01/23 16:10:25;;;;;;;;;;;;;;;;;;5076179;28;19946;-82
2024/01/23 16:12:52;;;;;;;;;;;;;;;;;;5057926;28;20377;-81
2024/01/23 16:15:18;;;;;;;;;;;;;;;;;;5082759;28;19924;-82
2024/01/23 16:17:45;;;;;;;;;;;;;;;;;;5073125;28;19928;-81
2024/01/23 16:20:11;;;;;;;;;;;;;;;;;;5079050;28;19951;-82
2024/01/23 16:22:38;;;;;;;;;;;;;;;;;;5073033;28;19988;-82
2024/01/23 16:25:04;;;;;;;;;;;;;;;;;;5075013;28;19925;-81
2024/01/23 16:27:32;;;;;;;;;;;;;;;;;;5066748;28;20431;-81
2024/01/23 16:29:59;;;;;;;;;;;;;;;;;;5075380;28;19941;-81
2024/01/23 16:32:26;;;;;;;;;;;;;;;;;;5072915;28;19932;-79
2024/01/23 16:34:52;;;;;;;;;;;;;;;;;;5069453;28;19986;-81
2024/01/23 16:37:19;;;;;;;;;;;;;;;;;;5079375;28;20331;-82
2024/01/23 16:39:45;;;;;;;;;;;;;;;;;;5064894;28;19967;-82
2024/01/23 16:42:11;;;;;;;;;;;;;;;;;;5076242;28;20447;-81
2024/01/23 16:44:38;;;;;;;;;;;;;;;;;;5075406;28;20045;-83